Time;durP1;ratioP1;P1;durP2;ratioP2;P2;SDS_P1;SDS_P2;PMS_P1;PMS_P2;Temp;Humidity;BMP_temperature;BMP_pressure;BME280_temperature;BME280_humidity;BME280_pressure;Samples;Min_cycle;Max_cycle;Signal;HPM_P1;HPM_P2
2022/10/13 00:02:09;;;;;;;17.75;12.80;;;;;;;10.16;100.00;101857.31;5073045;28;20454;-63
2022/10/13 00:04:34;;;;;;;20.45;13.45;;;;;;;10.16;100.00;101863.38;5086201;28;20016;-63
2022/10/13 00:06:59;;;;;;;16.95;12.95;;;;;;;10.17;100.00;101854.78;5074043;28;20020;-63
2022/10/13 00:09:24;;;;;;;16.80;13.10;;;;;;;10.17;100.00;101848.72;5073248;28;20051;-63
2022/10/13 00:11:50;;;;;;;16.38;12.68;;;;;;;10.17;100.00;101852.19;5076312;28;20020;-63
2022/10/13 00:14:15;;;;;;;21.85;12.13;;;;;;;10.19;100.00;101857.47;5081104;28;20318;-63
2022/10/13 00:16:40;;;;;;;16.77;12.90;;;;;;;10.18;100.00;101855.69;5072047;28;20094;-63
2022/10/13 00:19:05;;;;;;;19.92;12.48;;;;;;;10.19;100.00;101847.09;5087348;28;20482;-63
2022/10/13 00:21:31;;;;;;;18.15;12.98;;;;;;;10.19;100.00;101839.31;5073258;28;20033;-63
2022/10/13 00:23:56;;;;;;;18.50;12.20;;;;;;;10.19;100.00;101842.81;5072812;28;20085;-63
2022/10/13 00:26:23;;;;;;;15.18;12.70;;;;;;;10.20;100.00;101833.31;5073707;28;20078;-63
2022/10/13 00:28:49;;;;;;;18.73;12.52;;;;;;;10.19;100.00;101836.72;5073578;28;20107;-63
2022/10/13 00:31:23;;;;;;;18.33;12.43;;;;;;;10.19;100.00;101828.97;5059304;28;20035;-63
2022/10/13 00:33:49;;;;;;;17.38;12.75;;;;;;;10.18;100.00;101832.38;5073834;28;20649;-63
2022/10/13 00:36:15;;;;;;;19.13;12.20;;;;;;;10.17;100.00;101835.75;5058851;28;20458;-63
2022/10/13 00:38:41;;;;;;;17.85;12.15;;;;;;;10.16;100.00;101834.91;5072763;28;20055;-63
2022/10/13 00:41:06;;;;;;;20.55;12.93;;;;;;;10.17;100.00;101833.16;5069456;28;20055;-63
2022/10/13 00:44:22;;;;;;;18.23;12.15;;;;;;;10.16;100.00;101831.41;5080397;28;20032;-64
2022/10/13 00:46:48;;;;;;;17.63;11.68;;;;;;;10.17;100.00;101828.00;5076751;28;20395;-63
2022/10/13 00:49:13;;;;;;;16.08;12.40;;;;;;;10.17;100.00;101833.16;5060779;28;20451;-64
2022/10/13 00:51:43;;;;;;;17.33;12.02;;;;;;;10.17;100.00;101834.06;5082323;28;20024;-63
2022/10/13 00:54:12;;;;;;;18.88;12.13;;;;;;;10.17;100.00;101828.88;5076680;28;20025;-63
2022/10/13 00:56:38;;;;;;;18.88;11.80;;;;;;;10.20;100.00;101835.91;5064293;28;20044;-63
2022/10/13 00:59:11;;;;;;;20.05;12.52;;;;;;;10.21;100.00;101825.66;5053540;28;20017;-63
2022/10/13 01:01:37;;;;;;;19.52;12.48;;;;;;;10.23;100.00;101825.72;5072730;28;20020;-63
2022/10/13 01:04:02;;;;;;;16.50;12.55;;;;;;;10.25;100.00;101829.28;5059526;28;20098;-63
2022/10/13 01:06:28;;;;;;;17.65;12.30;;;;;;;10.26;100.00;101825.88;5072475;28;20036;-64
2022/10/13 01:08:53;;;;;;;19.83;12.18;;;;;;;10.27;100.00;101827.63;5070763;28;20035;-63
2022/10/13 01:11:51;;;;;;;17.75;11.55;;;;;;;10.28;100.00;101828.53;5068830;28;20024;-63
2022/10/13 01:14:29;;;;;;;17.70;11.50;;;;;;;10.29;100.00;101820.81;5042572;28;20044;-63
2022/10/13 01:17:07;;;;;;;18.20;12.40;;;;;;;10.30;100.00;101824.31;5067332;28;20017;-63
2022/10/13 01:20:02;;;;;;;17.17;12.73;;;;;;;10.31;100.00;101814.03;5081619;28;20028;-63
2022/10/13 01:23:05;;;;;;;19.38;12.38;;;;;;;10.33;100.00;101825.34;5083235;28;20020;-63
2022/10/13 01:25:45;;;;;;;17.42;11.13;;;;;;;10.35;100.00;101819.34;5083570;28;20154;-63
2022/10/13 01:28:32;;;;;;;17.87;11.80;;;;;;;10.36;100.00;101821.13;5089824;28;20035;-63
2022/10/13 01:31:26;;;;;;;19.40;12.75;;;;;;;10.36;100.00;101818.53;5071017;28;20032;-63
2022/10/13 01:34:04;;;;;;;16.33;12.00;;;;;;;10.36;100.00;101813.38;5068946;28;20020;-63
2022/10/13 01:36:43;;;;;;;17.05;11.68;;;;;;;10.37;100.00;101820.31;5068977;28;20048;-61
2022/10/13 01:39:26;;;;;;;18.60;11.98;;;;;;;10.37;100.00;101825.50;5069583;28;20025;-61
2022/10/13 01:42:00;;;;;;;19.77;12.25;;;;;;;10.36;100.00;101814.22;5082612;28;20101;-61
2022/10/13 01:44:35;;;;;;;17.73;11.48;;;;;;;10.37;100.00;101816.03;5061271;28;20030;-61
2022/10/13 01:47:02;;;;;;;18.05;12.52;;;;;;;10.37;100.00;101820.31;5089420;28;20465;-61
2022/10/13 01:49:32;;;;;;;16.70;11.98;;;;;;;10.36;100.00;101813.38;5073686;28;20031;-61
2022/10/13 01:52:01;;;;;;;18.98;12.43;;;;;;;10.36;100.00;101803.00;5089372;28;20020;-61
2022/10/13 01:54:27;;;;;;;16.85;11.27;;;;;;;10.37;100.00;101804.75;5069294;28;20024;-61
2022/10/13 01:56:53;;;;;;;18.25;12.95;;;;;;;10.37;100.00;101804.75;5067352;28;20036;-61
2022/10/13 01:59:19;;;;;;;17.63;12.90;;;;;;;10.37;100.00;101803.06;5068165;28;20028;-61
2022/10/13 02:02:11;;;;;;;21.30;12.85;;;;;;;10.37;100.00;101794.41;5069168;28;20519;-61
2022/10/13 02:04:52;;;;;;;18.38;12.50;;;;;;;10.38;100.00;101801.38;5064182;28;20021;-61
2022/10/13 02:07:20;;;;;;;19.63;12.18;;;;;;;10.39;100.00;101788.50;5048889;28;20029;-61
2022/10/13 02:09:56;;;;;;;19.25;12.05;;;;;;;10.38;100.00;101781.50;5067050;28;20048;-61
2022/10/13 02:12:52;;;;;;;17.67;12.27;;;;;;;10.40;100.00;101779.88;5068287;28;20063;-61
2022/10/13 02:15:22;;;;;;;17.17;11.20;;;;;;;10.40;100.00;101773.81;5060399;28;20043;-61
2022/10/13 02:17:49;;;;;;;17.98;11.45;;;;;;;10.40;100.00;101774.72;5070595;28;20036;-61
2022/10/13 02:20:18;;;;;;;16.02;12.73;;;;;;;10.42;100.00;101778.25;5074916;28;20017;-61
2022/10/13 02:22:46;;;;;;;18.17;13.00;;;;;;;10.42;100.00;101773.09;5082097;28;20056;-61
2022/10/13 02:25:11;;;;;;;17.25;12.07;;;;;;;10.43;100.00;101773.97;5067011;28;20024;-61
2022/10/13 02:27:37;;;;;;;16.42;12.85;;;;;;;10.44;100.00;101767.97;5067906;28;20320;-61
2022/10/13 02:30:04;;;;;;;16.73;12.02;;;;;;;10.45;100.00;101764.59;5059934;28;20025;-61
2022/10/13 02:32:29;;;;;;;18.13;11.77;;;;;;;10.46;100.00;101758.56;5064184;28;20025;-61
2022/10/13 02:34:55;;;;;;;14.32;11.00;;;;;;;10.48;100.00;101769.94;5067407;28;20491;-61
2022/10/13 02:37:20;;;;;;;16.77;11.48;;;;;;;10.47;100.00;101762.94;5062223;28;20451;-61
2022/10/13 02:39:46;;;;;;;18.60;12.02;;;;;;;10.48;100.00;101763.84;5078804;28;20019;-61
2022/10/13 02:42:11;;;;;;;18.27;11.80;;;;;;;10.48;100.00;101762.16;5084590;28;20109;-61
2022/10/13 02:44:36;;;;;;;19.65;11.65;;;;;;;10.50;100.00;101759.63;5087349;28;20311;-61
2022/10/13 02:47:02;;;;;;;17.60;12.05;;;;;;;10.51;100.00;101762.28;5082182;28;20497;-61
2022/10/13 02:49:27;;;;;;;22.67;12.48;;;;;;;10.52;100.00;101761.47;5082116;28;20020;-61
2022/10/13 02:51:52;;;;;;;17.23;11.30;;;;;;;10.53;100.00;101760.66;5068223;28;20028;-61
2022/10/13 02:54:18;;;;;;;16.25;11.85;;;;;;;10.54;100.00;101757.25;5069859;28;20035;-61
2022/10/13 02:56:43;;;;;;;16.75;11.90;;;;;;;10.57;100.00;101759.09;5088381;28;20094;-61
2022/10/13 02:59:09;;;;;;;17.00;11.30;;;;;;;10.56;100.00;101750.44;5073032;28;20028;-61
2022/10/13 03:01:39;;;;;;;19.92;11.80;;;;;;;10.59;100.00;101752.31;5087457;28;20034;-61
2022/10/13 03:04:05;;;;;;;19.80;12.40;;;;;;;10.60;100.00;101745.38;5081525;28;20032;-61
2022/10/13 03:06:30;;;;;;;16.85;10.75;;;;;;;10.59;100.00;101746.22;5063814;28;20025;-61
2022/10/13 03:08:55;;;;;;;15.70;11.10;;;;;;;10.60;100.00;101754.06;5059097;28;20024;-61
2022/10/13 03:11:21;;;;;;;18.98;12.02;;;;;;;10.60;100.00;101751.47;5069919;28;20065;-61
2022/10/13 03:13:46;;;;;;;18.42;11.85;;;;;;;10.59;100.00;101749.72;5078114;28;20024;-61
2022/10/13 03:16:12;;;;;;;14.98;11.48;;;;;;;10.60;100.00;101738.50;5067586;28;20032;-61
2022/10/13 03:18:37;;;;;;;17.00;11.25;;;;;;;10.59;100.00;101738.44;5080759;28;20020;-61
2022/10/13 03:21:05;;;;;;;21.25;12.02;;;;;;;10.62;100.00;101748.94;5067490;28;20469;-62
2022/10/13 03:23:30;;;;;;;18.67;11.25;;;;;;;10.62;100.00;101738.56;5061336;28;20013;-61
2022/10/13 03:25:56;;;;;;;17.95;11.10;;;;;;;10.61;100.00;101732.53;5064567;28;20030;-61
2022/10/13 03:28:21;;;;;;;16.98;11.48;;;;;;;10.63;100.00;101732.59;5087344;28;20047;-61
2022/10/13 03:30:47;;;;;;;15.88;10.75;;;;;;;10.63;100.00;101735.19;5073501;28;20383;-61
2022/10/13 03:33:12;;;;;;;20.08;11.52;;;;;;;10.64;100.00;101734.34;5066619;28;20064;-61
2022/10/13 03:35:38;;;;;;;15.15;10.48;;;;;;;10.64;100.00;101737.84;5066554;28;20472;-61
2022/10/13 03:38:03;;;;;;;20.35;10.60;;;;;;;10.64;100.00;101727.47;5059792;28;20036;-61
2022/10/13 03:40:28;;;;;;;14.93;11.10;;;;;;;10.65;100.00;101724.06;5067895;28;20028;-61
2022/10/13 03:42:54;;;;;;;16.38;12.60;;;;;;;10.64;100.00;101722.28;5073506;28;20045;-61
2022/10/13 03:45:19;;;;;;;18.77;11.93;;;;;;;10.66;100.00;101727.53;5069555;28;20026;-61
2022/10/13 03:47:44;;;;;;;18.52;11.85;;;;;;;10.67;100.00;101724.13;5087111;28;20562;-61
2022/10/13 03:50:10;;;;;;;16.48;10.80;;;;;;;10.66;100.00;101720.66;5083510;28;20097;-61
2022/10/13 03:52:35;;;;;;;19.25;12.75;;;;;;;10.68;100.00;101723.31;5067384;28;20419;-61
2022/10/13 03:55:00;;;;;;;15.73;11.77;;;;;;;10.69;100.00;101717.31;5086227;28;20506;-61
2022/10/13 03:57:26;;;;;;;15.98;10.90;;;;;;;10.69;100.00;101709.53;5073223;28;20028;-61
2022/10/13 03:59:51;;;;;;;14.05;11.52;;;;;;;10.72;100.00;101716.56;5075212;28;20035;-61
2022/10/13 04:02:16;;;;;;;16.42;11.07;;;;;;;10.71;100.00;101715.69;5070362;28;20419;-62
2022/10/13 04:04:42;;;;;;;18.40;12.05;;;;;;;10.72;100.00;101701.03;5077355;28;20137;-61
2022/10/13 04:07:07;;;;;;;15.02;11.57;;;;;;;10.73;100.00;101708.88;5066145;28;20123;-61
2022/10/13 04:09:33;;;;;;;17.63;11.18;;;;;;;10.74;100.00;101687.28;5074996;28;20043;-61
2022/10/13 04:11:58;;;;;;;17.10;11.60;;;;;;;10.74;100.00;101697.66;5072933;28;20056;-62
2022/10/13 04:14:23;;;;;;;15.80;10.95;;;;;;;10.75;100.00;101698.56;5066063;28;20059;-61
2022/10/13 04:16:49;;;;;;;14.13;11.95;;;;;;;10.76;100.00;101696.03;5066505;28;20040;-61
2022/10/13 04:19:14;;;;;;;20.80;11.52;;;;;;;10.76;100.00;101698.63;5068663;28;20032;-61
2022/10/13 04:21:41;;;;;;;19.42;12.90;;;;;;;10.77;100.00;101690.03;5076126;28;20085;-61
2022/10/13 04:24:07;;;;;;;15.38;11.98;;;;;;;10.77;100.00;101697.81;5066558;28;20029;-61
2022/10/13 04:26:34;;;;;;;15.70;12.07;;;;;;;10.78;100.00;101701.28;5065862;28;20489;-61
2022/10/13 04:29:03;;;;;;;15.68;10.95;;;;;;;10.78;100.00;101693.50;5066027;28;20103;-61
2022/10/13 04:31:29;;;;;;;14.50;10.75;;;;;;;10.79;100.00;101680.59;5061597;28;20033;-64
2022/10/13 04:33:54;;;;;;;18.08;11.35;;;;;;;10.80;100.00;101671.13;5066327;28;20064;-64
2022/10/13 04:36:20;;;;;;;14.75;11.55;;;;;;;10.78;100.00;101668.47;5057804;28;20102;-63
2022/10/13 04:38:46;;;;;;;18.15;12.00;;;;;;;10.80;100.00;101666.84;5063465;28;20032;-61
2022/10/13 04:41:13;;;;;;;17.48;12.27;;;;;;;10.82;100.00;101669.50;5064620;28;20136;-61
2022/10/13 04:43:39;;;;;;;14.02;11.18;;;;;;;10.83;100.00;101675.56;5071792;28;20028;-61
2022/10/13 04:46:07;;;;;;;14.98;11.20;;;;;;;10.82;100.00;101679.88;5069166;28;20040;-61
2022/10/13 04:48:33;;;;;;;16.65;10.55;;;;;;;10.84;100.00;101683.41;5069877;28;20029;-61
2022/10/13 04:51:07;;;;;;;17.80;10.98;;;;;;;10.85;100.00;101672.22;5069885;28;20488;-61
2022/10/13 04:53:33;;;;;;;17.42;11.50;;;;;;;10.85;100.00;101668.75;5073571;28;20525;-62
2022/10/13 04:56:07;;;;;;;17.55;10.90;;;;;;;10.85;100.00;101667.03;5079581;28;20029;-61
2022/10/13 04:58:33;;;;;;;16.55;11.05;;;;;;;10.86;100.00;101675.72;5069013;28;20016;-61
2022/10/13 05:00:58;;;;;;;14.88;11.15;;;;;;;10.86;100.00;101680.88;5070051;28;20028;-61
2022/10/13 05:03:24;;;;;;;18.42;11.10;;;;;;;10.86;100.00;101683.47;5069419;28;20498;-61
2022/10/13 05:05:50;;;;;;;18.92;11.68;;;;;;;10.87;100.00;101677.47;5079656;28;20140;-61
2022/10/13 05:08:15;;;;;;;16.85;12.18;;;;;;;10.87;100.00;101667.09;5080352;28;20028;-61
2022/10/13 05:10:41;;;;;;;12.82;10.15;;;;;;;10.85;100.00;101664.44;5069616;28;20110;-61
2022/10/13 05:13:06;;;;;;;15.65;11.02;;;;;;;10.85;100.00;101669.63;5070014;28;20077;-61
2022/10/13 05:15:31;;;;;;;17.75;11.52;;;;;;;10.84;100.00;101672.16;5069116;28;20052;-61
2022/10/13 05:17:58;;;;;;;16.75;11.35;;;;;;;10.84;100.00;101672.16;5069283;28;20024;-61
2022/10/13 05:20:24;;;;;;;16.83;12.18;;;;;;;10.83;100.00;101672.97;5059939;28;20024;-61
2022/10/13 05:22:49;;;;;;;19.80;12.07;;;;;;;10.83;100.00;101675.56;5068806;28;20074;-61
2022/10/13 05:25:14;;;;;;;14.65;10.90;;;;;;;10.79;100.00;101675.41;5059268;28;20021;-61
2022/10/13 05:27:40;;;;;;;13.27;11.88;;;;;;;10.80;100.00;101677.22;5065147;28;20558;-61
2022/10/13 05:30:06;;;;;;;15.50;12.00;;;;;;;10.79;100.00;101680.59;5058317;28;20541;-61
2022/10/13 05:32:33;;;;;;;16.83;11.77;;;;;;;10.80;100.00;101678.91;5068842;28;20083;-62
2022/10/13 05:34:59;;;;;;;18.52;12.60;;;;;;;10.80;100.00;101686.69;5062546;28;20021;-61
2022/10/13 05:37:24;;;;;;;18.00;12.20;;;;;;;10.79;100.00;101690.97;5062822;28;20043;-61
2022/10/13 05:39:49;;;;;;;17.88;12.88;;;;;;;10.78;100.00;101689.22;5069116;28;20020;-62
2022/10/13 05:42:14;;;;;;;18.67;12.80;;;;;;;10.78;100.00;101684.03;5056733;28;20128;-61
2022/10/13 05:44:40;;;;;;;19.90;12.25;;;;;;;10.78;100.00;101680.53;5069757;28;20024;-61
2022/10/13 05:47:06;;;;;;;13.65;11.68;;;;;;;10.76;100.00;101683.06;5056356;28;20057;-61
2022/10/13 05:49:31;;;;;;;17.02;11.95;;;;;;;10.76;100.00;101674.41;5066219;28;20016;-61
2022/10/13 05:52:03;;;;;;;18.58;12.48;;;;;;;10.75;100.00;101668.34;5053299;28;20752;-61
2022/10/13 05:54:34;;;;;;;18.98;12.73;;;;;;;10.75;100.00;101678.72;5075431;28;20020;-61
2022/10/13 05:57:03;;;;;;;19.13;13.60;;;;;;;10.72;100.00;101673.38;5066859;28;20032;-61
2022/10/13 05:59:33;;;;;;;20.23;13.27;;;;;;;10.72;100.00;101668.19;5056725;28;20128;-61
2022/10/13 06:02:00;;;;;;;19.50;13.20;;;;;;;10.72;100.00;101673.38;5066343;28;20021;-61
2022/10/13 06:04:33;;;;;;;20.58;13.55;;;;;;;10.72;100.00;101682.88;5065630;28;20028;-61
2022/10/13 06:06:58;;;;;;;16.42;12.38;;;;;;;10.71;100.00;101676.78;5065486;28;20036;-61
2022/10/13 06:09:23;;;;;;;18.15;13.90;;;;;;;10.71;100.00;101676.78;5058335;28;20025;-61
2022/10/13 06:11:49;;;;;;;17.63;12.68;;;;;;;10.71;100.00;101661.25;5064684;28;20491;-61
2022/10/13 06:14:14;;;;;;;20.13;13.35;;;;;;;10.73;100.00;101667.38;5071768;28;20099;-61
2022/10/13 06:16:40;;;;;;;20.48;13.35;;;;;;;10.73;100.00;101658.72;5065493;28;20032;-61
2022/10/13 06:19:05;;;;;;;14.98;12.98;;;;;;;10.74;100.00;101660.50;5057726;28;20028;-61
2022/10/13 06:21:33;;;;;;;19.20;13.93;;;;;;;10.73;100.00;101658.72;5072060;28;20111;-61
2022/10/13 06:24:00;;;;;;;18.98;13.20;;;;;;;10.75;100.00;101649.31;5066394;28;20013;-61
2022/10/13 06:26:25;;;;;;;20.15;13.35;;;;;;;10.75;100.00;101642.41;5061346;28;20013;-61
2022/10/13 06:28:50;;;;;;;20.40;14.00;;;;;;;10.77;100.00;101651.16;5076973;28;20522;-61
2022/10/13 06:31:15;;;;;;;18.65;14.25;;;;;;;10.78;100.00;101647.72;5067590;28;20042;-61
2022/10/13 06:33:41;;;;;;;17.42;14.20;;;;;;;10.78;100.00;101654.63;5065816;28;20049;-61
2022/10/13 06:36:06;;;;;;;23.90;13.80;;;;;;;10.78;100.00;101660.69;5066149;28;20792;-61
2022/10/13 06:38:32;;;;;;;21.88;13.80;;;;;;;10.80;100.00;101656.47;5059947;28;20044;-61
2022/10/13 06:41:01;;;;;;;20.48;13.52;;;;;;;10.81;100.00;101652.19;5064716;28;20016;-61
2022/10/13 06:43:27;;;;;;;20.02;13.80;;;;;;;10.83;100.00;101658.28;5068197;28;20047;-61
2022/10/13 06:45:52;;;;;;;23.13;14.98;;;;;;;10.84;100.00;101652.31;5067406;28;20461;-61
2022/10/13 06:48:17;;;;;;;24.30;13.98;;;;;;;10.85;100.00;101659.25;5067864;28;20032;-61
2022/10/13 06:50:43;;;;;;;21.73;14.18;;;;;;;10.85;100.00;101641.09;5066875;28;20511;-61
2022/10/13 06:53:08;;;;;;;22.42;14.90;;;;;;;10.88;100.00;101661.97;5068553;28;20449;-61
2022/10/13 06:55:33;;;;;;;20.02;14.80;;;;;;;10.89;100.00;101666.34;5080579;28;20391;-61
2022/10/13 06:57:58;;;;;;;25.77;15.15;;;;;;;10.89;100.00;101649.91;5080939;28;20077;-61
2022/10/13 07:00:24;;;;;;;24.15;14.68;;;;;;;10.92;100.00;101650.03;5087311;28;20024;-61
2022/10/13 07:02:51;;;;;;;29.33;16.15;;;;;;;10.92;100.00;101645.75;5077052;28;20085;-61
2022/10/13 07:05:17;;;;;;;33.17;16.50;;;;;;;10.95;100.00;101657.06;5064084;28;20465;-61
2022/10/13 07:07:42;;;;;;;25.88;15.45;;;;;;;10.97;100.00;101652.84;5060914;28;20077;-61
2022/10/13 07:10:08;;;;;;;23.67;15.32;;;;;;;10.99;100.00;101640.84;5067327;28;20036;-61
2022/10/13 07:12:33;;;;;;;20.42;14.75;;;;;;;11.01;100.00;101645.25;5067302;28;20033;-62
2022/10/13 07:14:58;;;;;;;20.92;15.80;;;;;;;11.01;100.00;101650.44;5067609;28;20423;-61
2022/10/13 07:17:24;;;;;;;19.60;14.52;;;;;;;11.03;100.00;101651.41;5066752;28;20103;-61
2022/10/13 07:19:49;;;;;;;22.58;16.38;;;;;;;11.04;100.00;101650.56;5067298;28;20479;-63
2022/10/13 07:22:15;;;;;;;25.88;15.50;;;;;;;11.07;100.00;101655.00;5068644;28;20140;-61
2022/10/13 07:24:40;;;;;;;20.77;14.77;;;;;;;11.09;100.00;101668.03;5066897;28;20543;-61
2022/10/13 07:27:05;;;;;;;25.05;15.05;;;;;;;11.11;100.00;101663.81;5067353;28;20032;-61
2022/10/13 07:29:31;;;;;;;25.38;14.32;;;;;;;11.12;100.00;101657.78;5080413;28;20032;-61
2022/10/13 07:31:56;;;;;;;22.67;14.55;;;;;;;11.14;100.00;101657.03;5065279;28;20032;-61
2022/10/13 07:34:21;;;;;;;30.23;15.15;;;;;;;11.17;100.00;101656.31;5066347;28;20041;-61
2022/10/13 07:36:47;;;;;;;27.48;14.98;;;;;;;11.20;100.00;101661.63;5075444;28;20072;-61
2022/10/13 07:39:12;;;;;;;22.63;15.25;;;;;;;11.24;100.00;101662.63;5071886;28;20055;-61
2022/10/13 07:41:37;;;;;;;21.10;14.98;;;;;;;11.24;100.00;101658.31;5078573;28;20389;-61
2022/10/13 07:44:03;;;;;;;21.92;14.98;;;;;;;11.28;100.00;101667.09;5069339;28;20468;-61
2022/10/13 07:46:28;;;;;;;17.60;13.30;;;;;;;11.28;100.00;101660.22;5075691;28;20028;-62
2022/10/13 07:48:53;;;;;;;21.00;14.23;;;;;;;11.29;100.00;101656.81;5070316;28;20366;-61
2022/10/13 07:51:20;;;;;;;21.30;14.48;;;;;;;11.32;100.00;101649.97;5052403;28;20594;-61
2022/10/13 07:53:46;;;;;;;21.33;14.80;;;;;;;11.32;100.00;101661.22;5073243;28;20062;-61
2022/10/13 07:56:13;;;;;;;17.55;13.50;;;;;;;11.36;100.00;101662.25;5074208;28;20492;-61
2022/10/13 07:58:41;;;;;;;18.67;13.80;;;;;;;11.38;100.00;101658.00;5066677;28;20496;-61
2022/10/13 08:01:07;;;;;;;20.80;14.25;;;;;;;11.42;100.00;101659.94;5066777;28;20107;-61
2022/10/13 08:03:33;;;;;;;21.02;14.50;;;;;;;11.43;100.00;101661.69;5067077;28;20027;-61
2022/10/13 08:06:00;;;;;;;18.05;13.40;;;;;;;11.49;100.00;101664.56;5066548;28;20381;-61
2022/10/13 08:08:26;;;;;;;18.10;12.77;;;;;;;11.54;100.00;101664.72;5065057;28;20025;-61
2022/10/13 08:10:51;;;;;;;18.80;13.70;;;;;;;11.60;100.00;101661.50;5053471;28;20059;-61
2022/10/13 08:13:16;;;;;;;19.83;13.82;;;;;;;11.66;100.00;101666.94;5066954;28;20046;-61
2022/10/13 08:15:43;;;;;;;18.90;13.00;;;;;;;11.70;100.00;101658.44;5066230;28;20017;-61
2022/10/13 08:18:10;;;;;;;16.50;13.13;;;;;;;11.74;100.00;101655.16;5067344;28;20123;-62
2022/10/13 08:20:42;;;;;;;17.80;12.40;;;;;;;11.76;100.00;101653.50;5070181;28;20397;-62
2022/10/13 08:23:08;;;;;;;19.08;13.05;;;;;;;11.81;100.00;101655.41;5070556;28;20384;-61
2022/10/13 08:25:38;;;;;;;19.98;13.27;;;;;;;11.82;100.00;101654.59;5054692;28;20021;-61
2022/10/13 08:28:04;;;;;;;16.15;12.45;;;;;;;11.83;100.00;101658.94;5058795;28;20021;-61
2022/10/13 08:30:29;;;;;;;19.48;12.77;;;;;;;11.83;100.00;101659.84;5069649;28;20032;-61
2022/10/13 08:32:55;;;;;;;18.23;13.30;;;;;;;11.82;100.00;101647.66;5068719;28;20036;-61
2022/10/13 08:35:20;;;;;;;19.73;12.48;;;;;;;11.88;100.00;101641.84;5070279;28;20039;-61
2022/10/13 08:37:45;;;;;;;15.57;12.55;;;;;;;11.95;100.00;101641.25;5067968;28;20373;-61
2022/10/13 08:40:16;;;;;;;16.95;12.88;;;;;;;12.01;100.00;101638.91;5070845;28;20025;-61
2022/10/13 08:42:43;;;;;;;18.08;12.35;;;;;;;12.11;100.00;101634.06;5054474;28;20498;-61
2022/10/13 08:45:18;;;;;;;20.85;12.88;;;;;;;12.17;100.00;101641.22;5070343;28;20376;-61
2022/10/13 08:48:01;;;;;;;15.75;12.90;;;;;;;12.23;100.00;101650.13;5055605;28;20027;-62
2022/10/13 08:50:30;;;;;;;14.45;11.68;;;;;;;12.26;100.00;101649.38;5068434;28;20818;-61
2022/10/13 08:53:01;;;;;;;19.90;13.68;;;;;;;12.26;100.00;101644.19;5069739;28;20024;-62
2022/10/13 08:55:26;;;;;;;;;;;;;;;12.28;100.00;101644.22;5076945;28;20573;-61
2022/10/13 08:57:52;;;;;;;19.02;13.00;;;;;;;12.29;100.00;101644.28;5076507;28;19962;-61
2022/10/13 09:00:18;;;;;;;21.48;13.20;;;;;;;12.29;100.00;101638.19;5088133;28;20531;-60
2022/10/13 09:02:44;;;;;;;17.75;12.73;;;;;;;12.30;100.00;101634.78;5080456;28;20431;-60
2022/10/13 09:05:18;;;;;;;17.42;12.70;;;;;;;12.32;100.00;101641.78;5069503;28;20103;-60
2022/10/13 09:07:45;;;;;;;18.42;12.95;;;;;;;12.33;100.00;101635.78;5070063;28;20528;-60
2022/10/13 09:10:10;;;;;;;17.83;12.30;;;;;;;12.37;100.00;101629.00;5054501;28;20377;-60
2022/10/13 09:12:36;;;;;;;17.48;12.90;;;;;;;12.38;100.00;101625.56;5057118;28;20078;-60
2022/10/13 09:15:08;;;;;;;17.95;13.80;;;;;;;12.42;100.00;101630.03;5068924;28;20032;-60
2022/10/13 09:17:35;;;;;;;18.63;12.90;;;;;;;12.44;100.00;101628.41;5069615;28;20016;-60
2022/10/13 09:20:22;;;;;;;19.33;12.90;;;;;;;12.45;100.00;101632.75;5080723;28;20527;-60
2022/10/13 09:23:13;;;;;;;17.33;14.10;;;;;;;12.46;100.00;101636.25;5068970;28;20024;-61
2022/10/13 09:25:47;;;;;;;18.85;14.38;;;;;;;12.42;100.00;101627.44;5068304;28;20028;-60
2022/10/13 09:28:28;;;;;;;21.15;14.48;;;;;;;12.39;100.00;101627.34;5058013;28;20098;-60
2022/10/13 09:31:16;;;;;;;24.52;15.00;;;;;;;12.37;100.00;101626.41;5066350;28;20023;-60
2022/10/13 09:33:41;;;;;;;20.77;15.35;;;;;;;12.36;100.00;101625.50;5060741;28;20195;-60
2022/10/13 09:36:10;;;;;;;18.63;13.20;;;;;;;12.33;100.00;101622.78;5054103;28;20108;-60
2022/10/13 09:38:36;;;;;;;15.02;13.13;;;;;;;12.32;100.00;101621.00;5069635;28;20052;-60
2022/10/13 09:41:07;;;;;;;20.33;12.68;;;;;;;12.34;100.00;101623.69;5062728;28;20531;-61
2022/10/13 09:43:41;;;;;;;21.38;13.13;;;;;;;12.36;100.00;101616.81;5062107;28;20060;-61
2022/10/13 09:46:24;;;;;;;16.67;13.07;;;;;;;12.36;100.00;101617.69;5060791;28;20028;-61
2022/10/13 09:48:52;;;;;;;16.63;12.75;;;;;;;12.40;100.00;101620.41;5061013;28;20373;-61
2022/10/13 09:51:35;;;;;;;20.25;12.80;;;;;;;12.42;100.00;101619.66;5067358;28;20111;-61
2022/10/13 09:54:01;;;;;;;14.15;11.77;;;;;;;12.41;100.00;101617.00;5069327;28;20473;-61
2022/10/13 09:56:33;;;;;;;18.48;12.60;;;;;;;12.41;100.00;101620.47;5068605;28;20047;-61
2022/10/13 09:59:31;;;;;;;16.25;12.32;;;;;;;12.43;100.00;101620.53;5056179;28;20032;-61
2022/10/13 10:02:00;;;;;;;14.57;12.30;;;;;;;12.40;100.00;101617.81;5057806;28;20116;-61
2022/10/13 10:04:36;;;;;;;16.10;11.88;;;;;;;12.36;100.00;101614.22;5068243;28;20047;-61
2022/10/13 10:07:10;;;;;;;16.90;11.07;;;;;;;12.35;100.00;101617.66;5068953;28;20025;-61
2022/10/13 10:09:45;;;;;;;16.83;12.77;;;;;;;12.34;100.00;101605.50;5068966;28;20024;-61
2022/10/13 10:12:19;;;;;;;16.58;12.30;;;;;;;12.31;100.00;101615.75;5079663;28;20380;-61
2022/10/13 10:14:47;;;;;;;14.35;12.35;;;;;;;12.31;100.00;101610.56;5066684;28;20024;-61
2022/10/13 10:17:39;;;;;;;16.33;12.15;;;;;;;12.28;100.00;101607.84;5067967;28;20060;-61
2022/10/13 10:20:40;;;;;;;22.17;13.02;;;;;;;12.27;100.00;101603.50;5074600;28;20040;-61
2022/10/13 10:23:24;;;;;;;17.23;13.30;;;;;;;12.25;100.00;101606.91;5048671;28;20070;-62
2022/10/13 10:26:03;;;;;;;19.83;13.07;;;;;;;12.23;100.00;101602.50;5074438;28;20030;-61
2022/10/13 10:29:05;;;;;;;16.73;13.52;;;;;;;12.14;100.00;101603.03;5071268;28;20055;-61
2022/10/13 10:31:54;;;;;;;18.15;13.32;;;;;;;12.13;100.00;101603.84;5059185;28;20016;-61
2022/10/13 10:34:26;;;;;;;13.77;11.93;;;;;;;12.11;100.00;101600.31;5056995;28;20025;-61
2022/10/13 10:37:15;;;;;;;18.73;13.00;;;;;;;12.10;100.00;101593.34;5064912;28;20028;-61
2022/10/13 10:40:07;;;;;;;18.05;13.82;;;;;;;12.08;100.00;101597.56;5065054;28;20020;-61
2022/10/13 10:42:40;;;;;;;18.80;13.65;;;;;;;12.08;100.00;101597.56;5047535;28;20047;-61
2022/10/13 10:45:17;;;;;;;17.35;13.73;;;;;;;12.08;100.00;101597.56;5079562;28;20417;-61
2022/10/13 10:47:46;;;;;;;20.08;13.68;;;;;;;12.06;100.00;101594.91;5065177;28;20020;-62
2022/10/13 10:50:16;;;;;;;18.05;14.07;;;;;;;12.05;100.00;101592.25;5078059;28;20024;-61
2022/10/13 10:52:47;;;;;;;16.90;13.43;;;;;;;12.06;100.00;101588.81;5072900;28;20082;-61
2022/10/13 10:55:24;;;;;;;19.55;14.02;;;;;;;12.08;100.00;101597.56;5082549;28;20343;-61
2022/10/13 10:57:54;;;;;;;17.98;13.60;;;;;;;12.11;100.00;101593.41;5068312;28;20032;-61
2022/10/13 11:00:22;;;;;;;18.15;13.73;;;;;;;12.16;100.00;101595.31;5067014;28;20028;-61
2022/10/13 11:03:09;;;;;;;18.42;13.68;;;;;;;12.20;100.00;101599.75;5067640;28;20024;-61
2022/10/13 11:06:15;;;;;;;24.00;13.82;;;;;;;12.24;100.00;101594.75;5067238;28;20023;-61
2022/10/13 11:08:48;;;;;;;19.58;13.25;;;;;;;12.28;100.00;101584.47;5024693;28;20033;-61
2022/10/13 11:11:19;;;;;;;20.50;14.15;;;;;;;12.29;100.00;101584.53;5023063;28;20524;-61
2022/10/13 11:14:06;;;;;;;18.58;13.70;;;;;;;12.30;100.00;101575.91;5035384;28;20076;-61